createdAt,value
2023-03-15T00:02:37.057Z,23.5
2023-03-15T00:08:56.931Z,23.5
2023-03-15T00:15:19.920Z,1.7
2023-03-15T00:21:40.066Z,1.7
2023-03-15T00:28:02.995Z,3.8
2023-03-15T00:34:23.136Z,3.8
2023-03-15T00:40:45.975Z,0.4
2023-03-15T00:47:06.104Z,0.4
2023-03-15T00:53:29.006Z,18.3
2023-03-15T00:59:49.081Z,18.3
2023-03-15T01:06:12.063Z,0.5
2023-03-15T01:12:31.998Z,0.5
2023-03-15T01:18:55.033Z,1.1
2023-03-15T01:25:15.093Z,1.1
2023-03-15T01:31:38.054Z,2
2023-03-15T01:37:57.959Z,2
2023-03-15T01:44:20.952Z,2.2
2023-03-15T01:50:40.996Z,2.2
2023-03-15T01:57:03.952Z,3.1
2023-03-15T02:03:24.075Z,3.1
2023-03-15T02:09:47.004Z,1.6
2023-03-15T02:16:07.131Z,1.6
2023-03-15T02:22:30.034Z,4.1
2023-03-15T02:28:50.128Z,4.1
2023-03-15T02:35:12.949Z,8.4
2023-03-15T02:41:32.971Z,8.4
2023-03-15T02:47:55.901Z,3.8
2023-03-15T02:54:16.022Z,3.8
2023-03-15T03:00:38.903Z,2.6
2023-03-15T03:06:58.951Z,2.6
2023-03-15T03:13:22.057Z,25.7
2023-03-15T03:19:42.103Z,25.7
2023-03-15T03:26:04.976Z,6.8
2023-03-15T03:32:25.055Z,6.8
2023-03-15T03:38:48.037Z,3.1
2023-03-15T03:45:08.013Z,3.1
2023-03-15T03:51:30.927Z,2.2
2023-03-15T03:57:51.085Z,2.2
2023-03-15T04:04:14.034Z,2.1
2023-03-15T04:10:33.970Z,2.1
2023-03-15T04:27:19.767Z,2.5
2023-03-15T04:33:39.927Z,2.5
2023-03-15T04:40:03.061Z,5.6
2023-03-15T04:46:24.949Z,5.6
2023-03-15T04:52:46.100Z,1
2023-03-15T04:59:05.957Z,1
2023-03-15T05:05:28.936Z,6.3
2023-03-15T05:11:48.971Z,6.3
2023-03-15T05:18:11.972Z,10.1
2023-03-15T05:24:32.055Z,10.1
2023-03-15T05:30:55.013Z,7.2
2023-03-15T05:37:14.923Z,7.2
2023-03-15T05:43:38.064Z,8.6
2023-03-15T05:49:58.056Z,8.6
2023-03-15T05:56:20.981Z,8.3
2023-03-15T06:02:41.071Z,8.3
2023-03-15T06:09:04.019Z,3.2
2023-03-15T06:15:24.083Z,3.2
2023-03-15T06:21:47.052Z,3.2
2023-03-15T06:28:06.998Z,3.2
2023-03-15T06:34:29.985Z,2.7
2023-03-15T06:40:50.008Z,2.7
2023-03-15T06:47:12.938Z,8.7
2023-03-15T06:53:32.895Z,8.7
2023-03-15T06:59:56.091Z,5.6
2023-03-15T07:06:16.687Z,5.6
2023-03-15T07:12:40.027Z,6.7
2023-03-15T07:19:00.068Z,6.7
2023-03-15T07:25:22.933Z,7
2023-03-15T07:31:43.080Z,7
2023-03-15T07:38:06.090Z,5.6
2023-03-15T07:44:25.903Z,5.6
2023-03-15T07:50:49.686Z,15.1
2023-03-15T07:57:10.097Z,15.1
2023-03-15T08:03:33.134Z,12.1
2023-03-15T08:09:52.984Z,12.1
2023-03-15T08:16:15.980Z,44.8
2023-03-15T08:22:38.402Z,44.8
2023-03-15T08:28:59.141Z,9.7
2023-03-15T08:35:19.152Z,9.7
2023-03-15T08:41:41.937Z,9.1
2023-03-15T08:48:01.900Z,9.1
2023-03-15T08:54:24.994Z,11.3
2023-03-15T09:00:44.907Z,11.3
2023-03-15T09:07:07.919Z,7.2
2023-03-15T09:31:06.949Z,7.1
2023-03-15T09:37:26.916Z,7.1
2023-03-15T09:43:49.946Z,10.1
2023-03-15T09:50:09.928Z,10.1
2023-03-15T09:56:32.952Z,7.6
2023-03-15T10:02:52.985Z,7.6
2023-03-15T10:09:16.017Z,11.3
2023-03-15T10:15:36.140Z,11.3
2023-03-15T10:21:59.156Z,6.6
2023-03-15T10:28:19.003Z,6.6
2023-03-15T10:34:42.068Z,3.9
2023-03-15T10:41:01.939Z,3.9
2023-03-15T10:47:25.181Z,2.7
2023-03-15T10:53:44.937Z,2.7
2023-03-15T11:00:07.997Z,1.5
2023-03-15T11:06:28.009Z,1.5
2023-03-15T11:12:51.205Z,1.7
2023-03-15T11:19:11.122Z,1.7
2023-03-15T11:25:34.007Z,1.7
2023-03-15T11:31:53.999Z,1.7
2023-03-15T11:38:16.972Z,4.4
2023-03-15T11:44:37.011Z,4.4
2023-03-15T11:50:59.953Z,1.6
2023-03-15T11:57:19.954Z,1.6
2023-03-15T12:03:43.127Z,5.5
2023-03-15T12:10:02.947Z,5.5
2023-03-15T12:16:26.129Z,2.4
2023-03-15T12:22:46.021Z,2.4
2023-03-15T12:29:08.923Z,4.4
2023-03-15T12:35:28.972Z,4.4
2023-03-15T12:41:51.986Z,2.9
2023-03-15T12:48:12.036Z,2.9
2023-03-15T12:54:34.939Z,7.1
2023-03-15T13:00:54.992Z,7.1
2023-03-15T13:07:18.025Z,2.2
2023-03-15T13:13:37.948Z,2.2
2023-03-15T13:20:01.071Z,4.9
2023-03-15T13:26:20.947Z,4.9
2023-03-15T13:32:44.021Z,6
2023-03-15T13:39:04.030Z,6
2023-03-15T13:45:27.202Z,4.5
2023-03-15T13:51:47.012Z,4.5
2023-03-15T13:58:09.988Z,0.8
2023-03-15T14:04:29.939Z,0.8
2023-03-15T14:10:53.024Z,1.6
2023-03-15T14:17:14.392Z,1.6
2023-03-15T14:23:37.342Z,15
2023-03-15T14:47:19.920Z,9.1
2023-03-15T14:53:39.934Z,9.1
2023-03-15T15:00:02.939Z,1.3
2023-03-15T15:06:22.940Z,1.3
2023-03-15T15:12:48.507Z,13.1
2023-03-15T15:19:05.929Z,13.1
2023-03-15T15:25:28.984Z,15.4
2023-03-15T15:31:49.031Z,15.4
2023-03-15T15:38:11.979Z,1.3
2023-03-15T15:44:32.008Z,1.3
2023-03-15T15:50:54.951Z,0.8
2023-03-15T15:57:14.957Z,0.8
2023-03-15T16:03:38.076Z,2.9
2023-03-15T16:09:57.890Z,2.9
2023-03-15T16:16:21.024Z,1.8
2023-03-15T16:22:41.011Z,1.8
2023-03-15T16:29:04.019Z,2.6
2023-03-15T16:35:24.122Z,2.6
2023-03-15T16:41:47.046Z,2.1
2023-03-15T16:48:07.039Z,2.1
2023-03-15T16:54:40.483Z,3.4
2023-03-15T17:00:49.974Z,3.4
2023-03-15T17:07:12.958Z,1.1
2023-03-15T17:13:33.040Z,1.1
2023-03-15T17:19:55.998Z,0.9
2023-03-15T17:26:15.972Z,0.9
2023-03-15T17:32:39.016Z,1.4
2023-03-15T17:39:00.710Z,1.4
2023-03-15T17:45:25.220Z,1.5
2023-03-15T17:51:46.456Z,1.5
2023-03-15T17:58:08.213Z,2.7
2023-03-15T18:04:28.113Z,2.7
2023-03-15T18:10:51.014Z,0.8
2023-03-15T18:17:11.086Z,0.8
2023-03-15T18:23:34.086Z,8.5
2023-03-15T18:29:53.961Z,8.5
2023-03-15T18:36:17.002Z,7.7
2023-03-15T18:42:36.902Z,7.7
2023-03-15T18:49:00.039Z,1.9
2023-03-15T18:55:20.199Z,1.9
2023-03-15T19:01:43.185Z,1.5
2023-03-15T19:08:03.030Z,1.5
2023-03-15T19:14:26.095Z,2.3
2023-03-15T19:20:45.970Z,2.3
2023-03-15T19:27:09.035Z,6
2023-03-15T19:33:28.961Z,6
2023-03-15T19:57:20.943Z,18.2
2023-03-15T20:03:43.950Z,18.2
2023-03-15T20:10:03.945Z,18.2
2023-03-15T20:16:26.966Z,6.6
2023-03-15T20:22:46.940Z,6.6
2023-03-15T20:29:09.994Z,12
2023-03-15T20:35:29.912Z,12
2023-03-15T20:41:52.941Z,2.3
2023-03-15T20:48:12.924Z,2.3
2023-03-15T20:54:38.224Z,4.4
2023-03-15T21:00:57.971Z,4.4
2023-03-15T21:07:20.968Z,3.4
2023-03-15T21:13:41.095Z,3.4
2023-03-15T21:20:04.003Z,7.2
2023-03-15T21:26:23.990Z,7.2
2023-03-15T21:32:47.104Z,5.5
2023-03-15T21:39:07.858Z,5.5
2023-03-15T21:45:30.105Z,3.2
2023-03-15T21:51:50.077Z,3.2
2023-03-15T21:58:13.119Z,12.2
2023-03-15T22:04:33.056Z,12.2
2023-03-15T22:10:55.904Z,12.4
2023-03-15T22:17:15.896Z,12.4
2023-03-15T22:23:39.175Z,6.1
2023-03-15T22:29:58.983Z,6.1
2023-03-15T22:36:21.927Z,17.9
2023-03-15T22:42:41.935Z,17.9
2023-03-15T22:49:04.996Z,5.6
2023-03-15T22:55:24.989Z,5.6
2023-03-15T23:01:48.030Z,10.2
2023-03-15T23:24:45.957Z,11.9
2023-03-15T23:31:05.953Z,11.9
2023-03-15T23:37:28.903Z,11.9
2023-03-15T23:43:49.008Z,11.9
2023-03-15T23:50:12.029Z,18.8
2023-03-15T23:56:31.933Z,18.8
